createdAt,value
2019-06-01T00:00:37.978Z,14.30
2019-06-01T00:01:38.302Z,12.70
2019-06-01T00:02:38.593Z,13.40
2019-06-01T00:03:38.204Z,11.20
2019-06-01T00:04:38.655Z,10.40
2019-06-01T00:05:38.428Z,10.90
2019-06-01T00:06:38.638Z,10.80
2019-06-01T00:07:38.714Z,12.00
2019-06-01T00:08:40.188Z,13.50
2019-06-01T00:09:38.913Z,12.10
2019-06-01T00:10:38.888Z,15.10
2019-06-01T00:11:39.096Z,15.60
2019-06-01T00:12:37.748Z,11.90
2019-06-01T00:13:37.697Z,15.20
2019-06-01T00:14:37.686Z,11.60
2019-06-01T00:15:37.678Z,12.90
2019-06-01T00:16:37.679Z,13.60
2019-06-01T00:17:37.650Z,13.90
2019-06-01T00:18:37.650Z,13.60
2019-06-01T00:19:37.628Z,12.20
2019-06-01T00:20:37.616Z,16.30
2019-06-01T00:21:37.616Z,12.80
2019-06-01T00:22:37.593Z,13.30
2019-06-01T00:23:37.583Z,17.00
2019-06-01T00:24:37.572Z,12.70
2019-06-01T00:25:37.592Z,11.80
2019-06-01T00:26:37.574Z,12.50
2019-06-01T00:27:37.540Z,12.80
2019-06-01T00:28:37.533Z,13.80
2019-06-01T00:29:37.560Z,11.80
2019-06-01T00:30:37.522Z,14.30
2019-06-01T00:31:37.490Z,17.40
2019-06-01T00:32:37.481Z,14.80
2019-06-01T00:33:37.546Z,14.90
2019-06-01T00:34:37.496Z,13.40
2019-06-01T00:35:37.454Z,13.80
2019-06-01T00:36:37.461Z,14.10
2019-06-01T00:37:37.424Z,14.80
2019-06-01T00:38:37.436Z,12.80
2019-06-01T00:39:37.401Z,12.10
2019-06-01T00:40:37.391Z,12.70
2019-06-01T00:41:37.410Z,13.20
2019-06-01T00:42:37.369Z,10.90
2019-06-01T00:43:37.364Z,19.80
2019-06-01T00:44:37.363Z,16.70
2019-06-01T00:45:37.336Z,15.20
2019-06-01T00:46:37.336Z,12.60
2019-06-01T00:47:37.310Z,13.90
2019-06-01T00:48:37.296Z,15.70
2019-06-01T00:49:37.299Z,14.30
2019-06-01T00:50:37.304Z,14.90
2019-06-01T00:51:37.266Z,16.60
2019-06-01T00:52:37.270Z,16.20
2019-06-01T00:53:37.246Z,11.90
2019-06-01T00:54:37.237Z,10.70
2019-06-01T00:55:37.239Z,14.10
2019-06-01T00:56:37.212Z,12.70
2019-06-01T00:57:37.204Z,11.80
2019-06-01T00:58:37.216Z,13.90
2019-06-01T00:59:37.179Z,15.40
2019-06-01T01:00:43.552Z,17.10
2019-06-01T01:01:38.154Z,9.60
2019-06-01T01:02:37.144Z,13.90
2019-06-01T01:03:37.126Z,13.10
2019-06-01T01:04:37.125Z,10.00
2019-06-01T01:05:37.110Z,15.00
2019-06-01T01:06:37.101Z,14.90
2019-06-01T01:07:38.254Z,11.10
2019-06-01T01:08:37.075Z,15.70
2019-06-01T01:09:37.063Z,15.50
2019-06-01T01:10:37.048Z,14.30
2019-06-01T01:11:37.039Z,13.20
2019-06-01T01:12:37.037Z,14.30
2019-06-01T01:13:37.016Z,12.40
2019-06-01T01:14:37.012Z,11.50
2019-06-01T01:15:37.729Z,12.30
2019-06-01T01:16:36.984Z,12.10
2019-06-01T01:17:36.979Z,12.70
2019-06-01T01:18:36.975Z,12.80
2019-06-01T01:19:36.949Z,17.60
2019-06-01T01:20:36.937Z,15.70
2019-06-01T01:21:36.922Z,15.10
2019-06-01T01:22:36.922Z,11.70
2019-06-01T01:23:36.912Z,11.90
2019-06-01T01:24:36.896Z,13.10
2019-06-01T01:25:36.890Z,13.90
2019-06-01T01:26:36.874Z,13.40
2019-06-01T01:27:36.855Z,15.40
2019-06-01T01:28:36.858Z,13.80
2019-06-01T01:29:36.834Z,11.70
2019-06-01T01:30:36.837Z,13.00
2019-06-01T01:31:36.812Z,12.40
2019-06-01T01:32:36.820Z,15.00
2019-06-01T01:33:36.838Z,16.00
2019-06-01T01:34:36.860Z,14.00
2019-06-01T01:35:36.770Z,11.40
2019-06-01T01:36:36.804Z,11.90
2019-06-01T01:37:36.746Z,14.30
2019-06-01T01:38:36.732Z,13.10
2019-06-01T01:39:36.724Z,14.10
2019-06-01T01:40:36.706Z,12.90
2019-06-01T01:41:36.696Z,12.00
2019-06-01T01:42:36.684Z,12.70
2019-06-01T01:43:36.700Z,12.80
2019-06-01T01:44:36.665Z,12.40
2019-06-01T01:45:36.676Z,12.70
2019-06-01T01:46:36.642Z,11.60
2019-06-01T01:47:36.631Z,11.40
2019-06-01T01:48:36.630Z,15.20
2019-06-01T01:49:36.608Z,15.50
2019-06-01T01:50:36.602Z,10.50
2019-06-01T01:51:36.606Z,10.90
2019-06-01T01:52:36.571Z,11.90
2019-06-01T01:53:36.582Z,12.00
2019-06-01T01:54:36.566Z,12.60
2019-06-01T01:55:36.540Z,13.50
2019-06-01T01:56:36.547Z,14.00
2019-06-01T01:57:36.514Z,14.10
2019-06-01T01:58:36.510Z,12.00
2019-06-01T01:59:36.504Z,13.30
2019-06-01T02:00:36.479Z,15.00
2019-06-01T02:01:36.476Z,14.30
2019-06-01T02:02:36.482Z,12.00
2019-06-01T02:03:36.446Z,12.20
2019-06-01T02:04:36.434Z,12.70
2019-06-01T02:05:36.439Z,12.50
2019-06-01T02:06:36.414Z,9.80
2019-06-01T02:07:36.420Z,14.00
2019-06-01T02:08:36.393Z,12.00
2019-06-01T02:09:36.380Z,12.00
2019-06-01T02:10:36.378Z,9.70
2019-06-01T02:11:36.355Z,12.50
2019-06-01T02:12:36.357Z,13.80
2019-06-01T02:13:36.342Z,12.60
2019-06-01T02:14:36.404Z,11.00
2019-06-01T02:15:36.313Z,11.40
2019-06-01T02:16:36.313Z,10.40
2019-06-01T02:17:36.290Z,9.10
2019-06-01T02:18:36.281Z,10.60
2019-06-01T02:19:36.659Z,11.50
2019-06-01T02:20:36.259Z,12.40
2019-06-01T02:21:36.238Z,12.20
2019-06-01T02:22:36.228Z,11.20
2019-06-01T02:23:36.220Z,11.10
2019-06-01T02:24:36.229Z,10.30
2019-06-01T02:25:36.220Z,11.50
2019-06-01T02:26:36.357Z,12.60
2019-06-01T02:27:36.173Z,10.90
2019-06-01T02:28:36.168Z,10.80
2019-06-01T02:29:36.155Z,14.10
2019-06-01T02:30:36.137Z,11.40
2019-06-01T02:31:41.422Z,12.60
2019-06-01T02:32:37.135Z,11.40
2019-06-01T02:33:36.103Z,9.90
2019-06-01T02:34:36.132Z,10.60
2019-06-01T02:35:36.103Z,11.90
2019-06-01T02:36:36.071Z,13.70
2019-06-01T02:37:36.059Z,9.70
2019-06-01T02:38:36.087Z,14.30
2019-06-01T02:39:36.054Z,10.40
2019-06-01T02:40:36.054Z,10.60
2019-06-01T02:41:36.014Z,10.70
2019-06-01T02:42:36.003Z,12.80
2019-06-01T02:43:36.006Z,11.90
2019-06-01T02:44:36.010Z,9.60
2019-06-01T02:45:35.973Z,11.80
2019-06-01T02:46:36.328Z,10.00
2019-06-01T02:47:35.948Z,11.80
2019-06-01T02:48:35.937Z,11.50
2019-06-01T02:49:35.923Z,12.10
2019-06-01T02:50:35.969Z,12.40
2019-06-01T02:51:35.901Z,14.60
2019-06-01T02:52:35.908Z,11.10
2019-06-01T02:53:35.873Z,10.50
2019-06-01T02:54:35.870Z,11.00
2019-06-01T02:55:35.892Z,12.30
2019-06-01T02:56:35.864Z,12.10
2019-06-01T02:57:35.846Z,10.60
2019-06-01T02:58:35.819Z,10.10
2019-06-01T02:59:35.806Z,12.60
2019-06-01T03:00:35.828Z,9.60
2019-06-01T03:01:35.803Z,11.80
2019-06-01T03:02:35.783Z,11.70
2019-06-01T03:03:35.777Z,13.60
2019-06-01T03:04:35.752Z,10.30
2019-06-01T03:05:35.748Z,10.60
2019-06-01T03:06:35.752Z,11.60
2019-06-01T03:07:35.742Z,11.90
2019-06-01T03:08:35.712Z,13.40
2019-06-01T03:09:35.697Z,10.50
2019-06-01T03:10:35.682Z,11.60
2019-06-01T03:11:35.675Z,11.90
2019-06-01T03:12:35.664Z,11.70
2019-06-01T03:13:35.658Z,14.50
2019-06-01T03:14:35.653Z,9.80
2019-06-01T03:15:35.627Z,10.70
2019-06-01T03:16:35.614Z,11.30
2019-06-01T03:17:35.612Z,12.50
2019-06-01T03:18:35.627Z,9.80
2019-06-01T03:19:35.590Z,13.00
2019-06-01T03:20:35.566Z,10.90
2019-06-01T03:21:35.562Z,12.10
2019-06-01T03:22:35.546Z,12.00
2019-06-01T03:23:35.536Z,12.00
2019-06-01T03:24:35.528Z,12.80
2019-06-01T03:25:35.517Z,14.10
2019-06-01T03:26:35.500Z,13.40
2019-06-01T03:27:35.492Z,11.70
2019-06-01T03:28:35.477Z,11.80
2019-06-01T03:29:35.561Z,11.30
2019-06-01T03:30:35.461Z,9.40
2019-06-01T03:31:35.443Z,10.90
2019-06-01T03:32:37.391Z,12.40
2019-06-01T03:33:35.420Z,14.60
2019-06-01T03:34:36.327Z,14.10
2019-06-01T03:35:35.401Z,14.10
2019-06-01T03:36:35.406Z,9.30
2019-06-01T03:37:35.374Z,15.50
2019-06-01T03:38:35.362Z,12.70
2019-06-01T03:39:35.352Z,11.90
2019-06-01T03:40:35.339Z,14.50
2019-06-01T03:41:35.335Z,12.50
2019-06-01T03:42:35.355Z,9.00
2019-06-01T03:43:35.308Z,10.50
2019-06-01T03:44:35.302Z,12.30
2019-06-01T03:45:35.303Z,10.40
2019-06-01T03:46:35.282Z,14.00
2019-06-01T03:47:35.299Z,11.20
2019-06-01T03:48:35.249Z,10.10
2019-06-01T03:49:35.240Z,10.80
2019-06-01T03:50:35.229Z,11.30
2019-06-01T03:51:35.213Z,12.20
2019-06-01T03:52:35.215Z,13.20
2019-06-01T03:53:35.212Z,10.50
2019-06-01T03:54:35.182Z,13.10
2019-06-01T03:55:35.176Z,11.80
2019-06-01T03:56:35.163Z,10.40
2019-06-01T03:57:35.155Z,10.30
2019-06-01T03:58:35.140Z,14.40
2019-06-01T03:59:35.129Z,13.70
2019-06-01T04:00:35.113Z,14.30
2019-06-01T04:01:35.117Z,9.80
2019-06-01T04:02:35.093Z,8.80
2019-06-01T04:03:35.094Z,12.50
2019-06-01T04:04:35.073Z,9.70
2019-06-01T04:05:35.056Z,11.00
2019-06-01T04:06:35.121Z,13.00
2019-06-01T04:07:35.034Z,10.80
2019-06-01T04:08:35.043Z,10.10
2019-06-01T04:09:35.027Z,13.30
2019-06-01T04:10:35.032Z,10.00
2019-06-01T04:11:34.997Z,9.50
2019-06-01T04:12:34.984Z,11.20
2019-06-01T04:13:34.998Z,11.30
2019-06-01T04:14:34.954Z,9.00
2019-06-01T04:15:34.963Z,11.30
2019-06-01T04:16:34.941Z,12.50
2019-06-01T04:17:34.924Z,9.60
2019-06-01T04:18:34.911Z,8.50
2019-06-01T04:19:34.904Z,11.40
2019-06-01T04:20:34.921Z,9.90
2019-06-01T04:21:34.903Z,11.60
2019-06-01T04:22:34.869Z,11.80
2019-06-01T04:23:36.441Z,10.80
2019-06-01T04:24:34.857Z,12.00
2019-06-01T04:25:34.854Z,11.70
2019-06-01T04:26:34.837Z,9.10
2019-06-01T04:27:34.828Z,11.80
2019-06-01T04:28:34.800Z,9.00
2019-06-01T04:29:34.815Z,12.20
2019-06-01T04:30:34.798Z,11.50
2019-06-01T04:31:34.773Z,11.00
2019-06-01T04:32:48.836Z,11.10
2019-06-01T04:33:35.746Z,11.10
2019-06-01T04:34:35.784Z,11.30
2019-06-01T04:35:34.734Z,10.80
2019-06-01T04:36:34.721Z,11.00
2019-06-01T04:37:34.713Z,10.50
2019-06-01T04:38:34.700Z,13.30
2019-06-01T04:39:34.683Z,12.30
2019-06-01T04:40:34.665Z,12.60
2019-06-01T04:41:34.675Z,11.70
2019-06-01T04:42:34.651Z,11.50
2019-06-01T04:43:34.643Z,11.40
2019-06-01T04:44:34.620Z,9.60
2019-06-01T04:45:34.611Z,11.10
2019-06-01T04:46:34.597Z,9.70
2019-06-01T04:47:34.589Z,10.00
2019-06-01T04:48:34.577Z,12.40
2019-06-01T04:49:34.587Z,9.40
2019-06-01T04:50:34.550Z,11.30
2019-06-01T04:51:34.541Z,10.20
2019-06-01T04:52:34.533Z,13.00
2019-06-01T04:53:34.537Z,13.00
2019-06-01T04:54:34.524Z,15.20
2019-06-01T04:55:34.537Z,11.10
2019-06-01T04:56:34.489Z,17.60
2019-06-01T04:57:34.479Z,10.70
2019-06-01T04:58:34.463Z,10.80
2019-06-01T04:59:37.706Z,10.30
2019-06-01T05:00:34.466Z,11.70
2019-06-01T05:01:34.435Z,9.60
2019-06-01T05:02:34.421Z,9.20
2019-06-01T05:03:34.429Z,11.20
2019-06-01T05:04:34.398Z,12.70
2019-06-01T05:05:34.395Z,9.70
2019-06-01T05:06:34.400Z,10.80
2019-06-01T05:07:34.366Z,9.50
2019-06-01T05:08:34.355Z,13.00
2019-06-01T05:09:34.341Z,12.50
2019-06-01T05:10:34.346Z,10.00
2019-06-01T05:11:34.329Z,11.90
2019-06-01T05:12:34.327Z,10.70
2019-06-01T05:13:34.303Z,9.30
2019-06-01T05:14:34.292Z,10.20
2019-06-01T05:15:34.291Z,11.00
2019-06-01T05:16:34.270Z,12.40
2019-06-01T05:17:34.274Z,10.30
2019-06-01T05:18:34.277Z,9.80
2019-06-01T05:19:34.229Z,11.20
2019-06-01T05:20:34.224Z,9.90
2019-06-01T05:21:34.213Z,10.10
2019-06-01T05:22:34.202Z,13.00
2019-06-01T05:23:34.225Z,12.10
2019-06-01T05:24:34.179Z,10.50
2019-06-01T05:25:34.167Z,11.50
2019-06-01T05:26:34.177Z,10.60
2019-06-01T05:27:34.149Z,13.60
2019-06-01T05:28:34.139Z,13.10
2019-06-01T05:29:34.121Z,10.30
2019-06-01T05:30:34.107Z,11.10
2019-06-01T05:31:34.097Z,11.70
2019-06-01T05:32:34.171Z,10.10
2019-06-01T05:33:37.580Z,11.40
2019-06-01T05:34:34.225Z,11.10
2019-06-01T05:35:34.084Z,10.90
2019-06-01T05:36:34.043Z,13.10
2019-06-01T05:37:34.039Z,11.70
2019-06-01T05:38:34.026Z,9.90
2019-06-01T05:39:34.027Z,11.00
2019-06-01T05:40:34.013Z,13.50
2019-06-01T05:41:33.992Z,12.70
2019-06-01T05:42:33.982Z,16.00
2019-06-01T05:43:33.967Z,10.80
2019-06-01T05:44:33.957Z,10.50
2019-06-01T05:45:33.955Z,10.30
2019-06-01T05:46:33.934Z,13.00
2019-06-01T05:47:33.925Z,14.60
2019-06-01T05:48:33.939Z,12.30
2019-06-01T05:49:33.898Z,11.30
2019-06-01T05:50:33.895Z,12.80
2019-06-01T05:51:33.885Z,14.30
2019-06-01T05:52:33.864Z,9.30
2019-06-01T05:53:33.871Z,13.60
2019-06-01T05:54:33.847Z,11.70
2019-06-01T05:55:33.833Z,10.10
2019-06-01T05:56:33.844Z,12.10
2019-06-01T05:57:33.832Z,13.80
2019-06-01T05:58:33.801Z,11.80
2019-06-01T05:59:33.786Z,9.40
2019-06-01T06:00:33.790Z,12.60
2019-06-01T06:01:33.771Z,11.10
2019-06-01T06:02:33.819Z,9.80
2019-06-01T06:03:40.320Z,11.60
2019-06-01T06:04:34.743Z,13.70
2019-06-01T06:05:33.725Z,12.90
2019-06-01T06:06:33.707Z,11.30
2019-06-01T06:07:33.699Z,14.40
2019-06-01T06:08:33.709Z,12.10
2019-06-01T06:09:33.857Z,11.10
2019-06-01T06:10:33.664Z,12.10
2019-06-01T06:11:33.694Z,12.30
2019-06-01T06:12:33.639Z,13.40
2019-06-01T06:13:33.642Z,11.80
2019-06-01T06:14:33.631Z,13.00
2019-06-01T06:15:33.602Z,11.90
2019-06-01T06:16:33.609Z,11.70
2019-06-01T06:17:33.582Z,13.70
2019-06-01T06:18:33.579Z,13.60
2019-06-01T06:19:33.565Z,12.00
2019-06-01T06:20:33.552Z,11.30
2019-06-01T06:21:33.531Z,11.10
2019-06-01T06:22:33.546Z,12.20
2019-06-01T06:23:33.513Z,17.40
2019-06-01T06:24:33.520Z,12.90
2019-06-01T06:25:35.691Z,12.90
2019-06-01T06:26:33.479Z,11.40
2019-06-01T06:27:33.476Z,11.70
2019-06-01T06:28:33.454Z,12.20
2019-06-01T06:29:33.449Z,17.40
2019-06-01T06:30:33.464Z,10.30
2019-06-01T06:31:33.421Z,12.80
2019-06-01T06:32:33.411Z,12.40
2019-06-01T06:33:36.730Z,13.80
2019-06-01T06:34:33.395Z,12.10
2019-06-01T06:35:33.383Z,12.70
2019-06-01T06:36:33.391Z,14.90
2019-06-01T06:37:33.388Z,11.90
2019-06-01T06:38:33.360Z,10.80
2019-06-01T06:39:33.335Z,13.10
2019-06-01T06:40:33.332Z,10.60
2019-06-01T06:41:33.320Z,12.00
2019-06-01T06:42:33.302Z,17.00
2019-06-01T06:43:33.520Z,10.80
2019-06-01T06:44:33.288Z,11.30
2019-06-01T06:45:33.259Z,10.80
2019-06-01T06:46:33.256Z,10.90
2019-06-01T06:47:33.271Z,12.50
2019-06-01T06:48:33.229Z,11.60
2019-06-01T06:49:33.212Z,11.80
2019-06-01T06:50:33.321Z,9.20
2019-06-01T06:51:33.212Z,11.10
2019-06-01T06:52:33.335Z,9.30
2019-06-01T06:53:35.318Z,11.80
2019-06-01T06:54:33.166Z,13.10
2019-06-01T06:55:33.198Z,13.20
2019-06-01T06:56:33.138Z,10.30
2019-06-01T06:57:33.134Z,10.90
2019-06-01T06:58:33.154Z,12.60
2019-06-01T06:59:33.099Z,13.80
2019-06-01T07:00:33.099Z,11.40
2019-06-01T07:01:33.092Z,10.00
2019-06-01T07:02:33.071Z,11.50
2019-06-01T07:03:33.061Z,10.40
2019-06-01T07:04:33.083Z,11.80
2019-06-01T07:05:33.035Z,12.00
2019-06-01T07:06:33.027Z,10.70
2019-06-01T07:07:33.022Z,10.70
2019-06-01T07:08:33.005Z,8.80
2019-06-01T07:09:33.022Z,10.50
2019-06-01T07:10:32.975Z,12.40
2019-06-01T07:11:32.973Z,12.20
2019-06-01T07:12:33.003Z,9.90
2019-06-01T07:13:32.940Z,12.70
2019-06-01T07:14:32.944Z,11.80
2019-06-01T07:15:32.920Z,11.00
2019-06-01T07:16:32.913Z,12.90
2019-06-01T07:17:32.907Z,10.70
2019-06-01T07:18:32.881Z,8.30
2019-06-01T07:19:32.889Z,12.70
2019-06-01T07:20:32.908Z,10.90
2019-06-01T07:21:32.859Z,9.90
2019-06-01T07:22:32.849Z,7.60
2019-06-01T07:23:32.858Z,8.60
2019-06-01T07:24:32.839Z,11.10
2019-06-01T07:25:33.062Z,10.80
2019-06-01T07:26:32.818Z,14.20
2019-06-01T07:27:32.851Z,9.60
2019-06-01T07:28:32.786Z,13.60
2019-06-01T07:29:32.762Z,10.40
2019-06-01T07:30:49.444Z,12.50
2019-06-01T07:31:33.744Z,9.00
2019-06-01T07:32:32.916Z,9.10
2019-06-01T07:33:32.855Z,12.10
2019-06-01T07:34:40.204Z,11.30
2019-06-01T07:35:33.734Z,8.70
2019-06-01T07:36:32.835Z,10.30
2019-06-01T07:37:32.801Z,10.10
2019-06-01T07:38:33.225Z,8.30
2019-06-01T07:39:33.477Z,8.60
2019-06-01T07:40:33.040Z,6.10
2019-06-01T07:41:33.091Z,10.90
2019-06-01T07:42:33.055Z,9.50
2019-06-01T07:43:33.268Z,9.00
2019-06-01T07:44:33.260Z,11.10
2019-06-01T07:45:34.888Z,9.90
2019-06-01T07:46:33.220Z,10.70
2019-06-01T07:47:34.020Z,9.00
2019-06-01T07:48:33.439Z,8.30
2019-06-01T07:49:32.549Z,8.20
2019-06-01T07:50:32.526Z,10.80
2019-06-01T07:51:32.520Z,8.00
2019-06-01T07:52:32.525Z,7.30
2019-06-01T07:53:32.498Z,9.80
2019-06-01T07:54:32.734Z,11.30
2019-06-01T07:55:32.472Z,6.80
2019-06-01T07:56:32.859Z,6.50
2019-06-01T07:57:32.477Z,8.40
2019-06-01T07:58:32.969Z,8.00
2019-06-01T07:59:32.661Z,9.30
2019-06-01T08:00:33.213Z,9.60
2019-06-01T08:01:32.903Z,5.90
2019-06-01T08:02:33.125Z,11.60
2019-06-01T08:03:34.789Z,9.60
2019-06-01T08:04:50.545Z,6.90
2019-06-01T08:05:33.373Z,8.20
2019-06-01T08:06:32.833Z,8.60
2019-06-01T08:07:32.354Z,7.80
2019-06-01T08:08:32.344Z,9.70
2019-06-01T08:09:32.312Z,13.40
2019-06-01T08:10:32.316Z,9.00
2019-06-01T08:11:34.926Z,7.50
2019-06-01T08:12:32.298Z,8.00
2019-06-01T08:13:35.371Z,7.90
2019-06-01T08:14:32.891Z,9.40
2019-06-01T08:15:32.251Z,14.10
2019-06-01T08:16:32.263Z,9.20
2019-06-01T08:17:32.333Z,8.60
2019-06-01T08:18:32.340Z,9.70
2019-06-01T08:19:32.221Z,6.10
2019-06-01T08:20:32.330Z,5.90
2019-06-01T08:21:32.455Z,5.60
2019-06-01T08:22:32.251Z,8.10
2019-06-01T08:23:32.532Z,7.40
2019-06-01T08:24:32.473Z,6.60
2019-06-01T08:25:32.814Z,6.10
2019-06-01T08:26:32.653Z,7.70
2019-06-01T08:27:32.669Z,13.80
2019-06-01T08:28:32.745Z,6.30
2019-06-01T08:29:32.824Z,5.40
2019-06-01T08:30:32.711Z,8.70
2019-06-01T08:31:33.529Z,8.20
2019-06-01T08:32:32.969Z,7.80
2019-06-01T08:33:34.631Z,7.00
2019-06-01T08:34:33.139Z,7.90
2019-06-01T08:35:33.004Z,7.90
2019-06-01T08:36:33.754Z,7.60
2019-06-01T08:37:32.042Z,6.00
2019-06-01T08:38:32.058Z,7.60
2019-06-01T08:39:31.978Z,5.40
2019-06-01T08:40:32.019Z,6.20
2019-06-01T08:41:31.964Z,7.00
2019-06-01T08:42:31.942Z,7.60
2019-06-01T08:43:31.948Z,4.40
2019-06-01T08:44:31.958Z,6.00
2019-06-01T08:45:36.091Z,5.90
2019-06-01T08:46:33.949Z,6.90
2019-06-01T08:47:32.060Z,8.60
2019-06-01T08:48:32.037Z,5.60
2019-06-01T08:49:32.515Z,6.50
2019-06-01T08:50:32.064Z,3.90
2019-06-01T08:51:32.135Z,7.10
2019-06-01T08:52:32.208Z,4.00
2019-06-01T08:53:32.182Z,6.20
2019-06-01T08:54:32.267Z,6.20
2019-06-01T08:55:32.306Z,6.20
2019-06-01T08:56:32.310Z,4.10
2019-06-01T08:57:32.458Z,6.60
2019-06-01T08:58:32.502Z,3.80
2019-06-01T08:59:32.550Z,6.00
2019-06-01T09:00:32.623Z,6.50
2019-06-01T09:01:32.766Z,6.80
2019-06-01T09:02:32.791Z,5.50
2019-06-01T09:03:31.960Z,6.00
2019-06-01T09:04:32.735Z,6.40
2019-06-01T09:05:31.698Z,4.50
2019-06-01T09:06:32.736Z,3.80
2019-06-01T09:07:33.101Z,3.60
2019-06-01T09:08:33.140Z,6.10
2019-06-01T09:09:33.028Z,5.40
2019-06-01T09:10:32.067Z,8.20
2019-06-01T09:11:31.620Z,4.60
2019-06-01T09:12:31.631Z,5.20
2019-06-01T09:13:31.641Z,5.00
2019-06-01T09:14:31.600Z,6.00
2019-06-01T09:15:31.584Z,5.40
2019-06-01T09:16:31.672Z,7.10
2019-06-01T09:17:31.668Z,9.40
2019-06-01T09:18:31.611Z,4.70
2019-06-01T09:19:31.673Z,5.60
2019-06-01T09:20:35.338Z,8.10
2019-06-01T09:21:33.574Z,4.40
2019-06-01T09:22:31.651Z,5.40
2019-06-01T09:23:31.701Z,4.80
2019-06-01T09:24:31.955Z,4.40
2019-06-01T09:25:31.803Z,3.50
2019-06-01T09:26:32.005Z,9.90
2019-06-01T09:27:31.981Z,3.90
2019-06-01T09:28:32.034Z,5.50
2019-06-01T09:29:32.136Z,3.40
2019-06-01T09:30:32.109Z,4.10
2019-06-01T09:31:32.385Z,5.40
2019-06-01T09:32:32.208Z,4.30
2019-06-01T09:33:32.205Z,7.60
2019-06-01T09:34:32.448Z,3.60
2019-06-01T09:35:47.734Z,7.20
2019-06-01T09:36:32.539Z,5.30
2019-06-01T09:37:32.482Z,5.70
2019-06-01T09:38:31.648Z,7.00
2019-06-01T09:39:31.323Z,6.40
2019-06-01T09:40:32.190Z,6.20
2019-06-01T09:41:32.493Z,7.80
2019-06-01T09:42:31.322Z,9.60
2019-06-01T09:43:31.285Z,5.30
2019-06-01T09:44:31.983Z,6.40
2019-06-01T09:45:32.884Z,6.90
2019-06-01T09:46:32.111Z,9.10
2019-06-01T09:47:31.218Z,5.60
2019-06-01T09:48:31.470Z,6.30
2019-06-01T09:49:32.634Z,6.70
2019-06-01T09:50:31.393Z,5.00
2019-06-01T09:51:31.447Z,4.30
2019-06-01T09:52:31.394Z,4.70
2019-06-01T09:53:32.602Z,5.80
2019-06-01T09:54:32.631Z,9.50
2019-06-01T09:55:32.601Z,5.00
2019-06-01T09:56:33.242Z,4.60
2019-06-01T09:57:31.955Z,11.50
2019-06-01T09:58:32.206Z,6.50
2019-06-01T09:59:31.934Z,8.30
2019-06-01T10:00:32.281Z,5.50
2019-06-01T10:01:32.297Z,5.70
2019-06-01T10:02:32.077Z,4.80
2019-06-01T10:03:32.473Z,5.60
2019-06-01T10:04:32.214Z,4.90
2019-06-01T10:05:32.307Z,5.80
2019-06-01T10:06:30.998Z,5.20
2019-06-01T10:07:31.125Z,5.30
2019-06-01T10:08:32.547Z,4.60
2019-06-01T10:09:31.535Z,8.20
2019-06-01T10:10:31.885Z,4.10
2019-06-01T10:11:32.429Z,6.90
2019-06-01T10:12:31.872Z,5.00
2019-06-01T10:13:32.956Z,5.10
2019-06-01T10:14:31.902Z,6.10
2019-06-01T10:15:32.397Z,5.30
2019-06-01T10:16:32.109Z,7.60
2019-06-01T10:17:33.364Z,4.20
2019-06-01T10:18:30.975Z,4.60
2019-06-01T10:19:30.870Z,6.10
2019-06-01T10:20:31.025Z,5.60
2019-06-01T10:21:32.041Z,4.80
2019-06-01T10:22:30.995Z,7.70
2019-06-01T10:23:32.218Z,4.80
2019-06-01T10:24:31.114Z,3.60
2019-06-01T10:25:32.275Z,4.00
2019-06-01T10:26:31.348Z,4.90
2019-06-01T10:27:30.869Z,4.10
2019-06-01T10:28:31.522Z,6.00
2019-06-01T10:29:30.751Z,3.80
2019-06-01T10:30:31.674Z,3.80
2019-06-01T10:31:30.752Z,4.60
2019-06-01T10:32:32.549Z,6.50
2019-06-01T10:33:30.747Z,6.00
2019-06-01T10:34:31.509Z,7.40
2019-06-01T10:35:30.788Z,4.20
2019-06-01T10:36:31.803Z,5.90
2019-06-01T10:37:31.371Z,8.60
2019-06-01T10:38:31.103Z,5.50
2019-06-01T10:39:31.214Z,4.40
2019-06-01T10:40:31.216Z,6.90
2019-06-01T10:41:31.251Z,4.50
2019-06-01T10:42:32.723Z,3.70
2019-06-01T10:43:31.439Z,6.50
2019-06-01T10:44:31.568Z,4.10
2019-06-01T10:45:31.754Z,5.10
2019-06-01T10:46:31.821Z,4.20
2019-06-01T10:47:31.693Z,4.60
2019-06-01T10:48:32.666Z,4.20
2019-06-01T10:49:31.780Z,4.10
2019-06-01T10:50:32.817Z,4.60
2019-06-01T10:51:31.933Z,4.40
2019-06-01T10:52:31.901Z,9.40
2019-06-01T10:53:31.770Z,5.40
2019-06-01T10:54:30.462Z,4.40
2019-06-01T10:55:30.556Z,3.50
2019-06-01T10:56:30.454Z,6.60
2019-06-01T10:57:30.439Z,4.00
2019-06-01T10:58:30.434Z,7.60
2019-06-01T10:59:30.424Z,3.50
2019-06-01T11:00:38.673Z,3.40
2019-06-01T11:01:33.796Z,5.50
2019-06-01T11:02:30.392Z,3.50
2019-06-01T11:03:30.420Z,2.90
2019-06-01T11:04:30.376Z,3.60
2019-06-01T11:05:30.378Z,3.40
2019-06-01T11:06:39.974Z,5.30
2019-06-01T11:07:32.682Z,3.10
2019-06-01T11:08:30.325Z,3.80
2019-06-01T11:09:30.305Z,3.70
2019-06-01T11:10:30.293Z,3.00
2019-06-01T11:11:30.276Z,3.00
2019-06-01T11:12:30.452Z,5.20
2019-06-01T11:13:30.261Z,3.10
2019-06-01T11:14:30.290Z,5.10
2019-06-01T11:15:30.280Z,3.60
2019-06-01T11:16:30.236Z,3.90
2019-06-01T11:17:30.210Z,3.20
2019-06-01T11:18:30.235Z,3.40
2019-06-01T11:19:30.198Z,4.20
2019-06-01T11:20:30.176Z,3.20
2019-06-01T11:21:30.208Z,3.70
2019-06-01T11:22:30.171Z,2.90
2019-06-01T11:23:30.157Z,3.40
2019-06-01T11:24:30.143Z,3.30
2019-06-01T11:25:30.135Z,3.40
2019-06-01T11:26:30.124Z,3.70
2019-06-01T11:27:30.111Z,2.90
2019-06-01T11:28:30.153Z,4.10
2019-06-01T11:29:30.080Z,3.10
2019-06-01T11:30:30.072Z,3.50
2019-06-01T11:31:30.059Z,4.70
2019-06-01T11:32:30.051Z,3.20
2019-06-01T11:33:30.044Z,3.20
2019-06-01T11:34:30.025Z,3.20
2019-06-01T11:35:30.014Z,3.00
2019-06-01T11:36:30.017Z,3.00
2019-06-01T11:37:29.999Z,3.80
2019-06-01T11:38:29.984Z,3.10
2019-06-01T11:39:29.987Z,3.40
2019-06-01T11:40:29.953Z,3.40
2019-06-01T11:41:29.947Z,3.50
2019-06-01T11:42:29.937Z,3.60
2019-06-01T11:43:29.932Z,5.60
2019-06-01T11:44:29.927Z,3.00
2019-06-01T11:45:29.901Z,4.00
2019-06-01T11:46:29.887Z,2.60
2019-06-01T11:47:29.875Z,5.30
2019-06-01T11:48:29.884Z,2.70
2019-06-01T11:49:29.954Z,3.30
2019-06-01T11:50:29.843Z,3.80
2019-06-01T11:51:29.868Z,2.70
2019-06-01T11:52:29.820Z,3.00
2019-06-01T11:53:29.809Z,2.70
2019-06-01T11:54:29.809Z,2.90
2019-06-01T11:55:29.789Z,2.90
2019-06-01T11:56:29.777Z,2.90
2019-06-01T11:57:29.765Z,2.80
2019-06-01T11:58:29.935Z,4.00
2019-06-01T11:59:29.743Z,2.80
2019-06-01T12:00:29.762Z,4.80
2019-06-01T12:01:29.752Z,2.70
2019-06-01T12:02:29.719Z,2.50
2019-06-01T12:03:29.700Z,3.00
2019-06-01T12:04:29.717Z,3.10
2019-06-01T12:05:29.681Z,4.20
2019-06-01T12:06:29.671Z,2.90
2019-06-01T12:07:29.659Z,2.50
2019-06-01T12:08:33.860Z,3.80
2019-06-01T12:09:29.634Z,3.50
2019-06-01T12:10:29.619Z,5.50
2019-06-01T12:11:29.653Z,4.60
2019-06-01T12:12:29.622Z,4.20
2019-06-01T12:13:29.589Z,6.50
2019-06-01T12:14:29.575Z,3.80
2019-06-01T12:15:29.576Z,3.60
2019-06-01T12:16:29.556Z,4.30
2019-06-01T12:17:29.554Z,4.00
2019-06-01T12:18:29.550Z,2.60
2019-06-01T12:19:29.523Z,2.70
2019-06-01T12:20:29.509Z,4.50
2019-06-01T12:21:29.517Z,4.40
2019-06-01T12:22:29.491Z,2.40
2019-06-01T12:23:29.492Z,4.30
2019-06-01T12:24:29.500Z,2.50
2019-06-01T12:25:29.455Z,5.00
2019-06-01T12:26:29.441Z,2.90
2019-06-01T12:27:29.435Z,3.40
2019-06-01T12:28:29.438Z,3.00
2019-06-01T12:29:29.433Z,2.30
2019-06-01T12:30:29.406Z,3.00
2019-06-01T12:31:29.389Z,2.90
2019-06-01T12:32:29.378Z,2.40
2019-06-01T12:33:29.367Z,2.40
2019-06-01T12:34:29.366Z,8.70
2019-06-01T12:35:29.358Z,6.30
2019-06-01T12:36:29.349Z,3.80
2019-06-01T12:37:45.581Z,2.50
2019-06-01T12:38:30.325Z,2.50
2019-06-01T12:39:29.301Z,3.90
2019-06-01T12:40:29.301Z,9.00
2019-06-01T12:41:29.277Z,2.40
2019-06-01T12:42:29.279Z,3.30
2019-06-01T12:43:29.415Z,2.80
2019-06-01T12:44:29.242Z,2.50
2019-06-01T12:45:29.246Z,2.40
2019-06-01T12:46:29.227Z,2.80
2019-06-01T12:47:29.238Z,3.00
2019-06-01T12:48:29.221Z,2.40
2019-06-01T12:49:29.207Z,3.30
2019-06-01T12:50:29.178Z,2.30
2019-06-01T12:51:29.165Z,2.30
2019-06-01T12:52:29.175Z,2.30
2019-06-01T12:53:29.147Z,2.60
2019-06-01T12:54:29.136Z,4.30
2019-06-01T12:55:29.135Z,2.70
2019-06-01T12:56:29.111Z,2.30
2019-06-01T12:57:29.109Z,2.20
2019-06-01T12:58:29.136Z,2.10
2019-06-01T12:59:29.079Z,3.40
2019-06-01T13:00:29.148Z,2.10
2019-06-01T13:01:29.058Z,2.40
2019-06-01T13:02:29.051Z,4.90
2019-06-01T13:03:29.063Z,6.60
2019-06-01T13:04:29.019Z,3.70